sensor_id;sensor_type;location;lat;lon;timestamp;P1;durP1;ratioP1;P2;durP2;ratioP2
70312;SDS011;57723;51.698;5.344;2023-12-04T00:01:21;10.32;;;3.83;;
70312;SDS011;57723;51.698;5.344;2023-12-04T00:03:50;8.60;;;3.70;;
70312;SDS011;57723;51.698;5.344;2023-12-04T00:06:15;9.70;;;3.83;;
70312;SDS011;57723;51.698;5.344;2023-12-04T00:08:41;10.47;;;3.50;;
70312;SDS011;57723;51.698;5.344;2023-12-04T00:11:06;8.97;;;3.77;;
70312;SDS011;57723;51.698;5.344;2023-12-04T00:13:32;9.43;;;4.15;;
70312;SDS011;57723;51.698;5.344;2023-12-04T00:15:57;10.43;;;4.00;;
70312;SDS011;57723;51.698;5.344;2023-12-04T00:18:22;8.77;;;4.00;;
70312;SDS011;57723;51.698;5.344;2023-12-04T00:20:48;7.30;;;3.80;;
70312;SDS011;57723;51.698;5.344;2023-12-04T00:23:13;8.30;;;4.43;;
70312;SDS011;57723;51.698;5.344;2023-12-04T00:25:41;9.70;;;4.03;;
70312;SDS011;57723;51.698;5.344;2023-12-04T00:28:06;8.30;;;3.85;;
70312;SDS011;57723;51.698;5.344;2023-12-04T00:30:31;9.13;;;3.73;;
70312;SDS011;57723;51.698;5.344;2023-12-04T00:32:57;8.77;;;3.70;;
70312;SDS011;57723;51.698;5.344;2023-12-04T00:35:22;8.80;;;3.83;;
70312;SDS011;57723;51.698;5.344;2023-12-04T00:37:47;8.23;;;3.50;;
70312;SDS011;57723;51.698;5.344;2023-12-04T00:40:13;7.47;;;3.97;;
70312;SDS011;57723;51.698;5.344;2023-12-04T00:42:39;8.35;;;3.90;;
70312;SDS011;57723;51.698;5.344;2023-12-04T00:45:04;9.50;;;3.63;;
70312;SDS011;57723;51.698;5.344;2023-12-04T00:47:30;8.73;;;3.90;;
70312;SDS011;57723;51.698;5.344;2023-12-04T00:49:55;8.10;;;3.60;;
70312;SDS011;57723;51.698;5.344;2023-12-04T00:52:20;8.13;;;3.70;;
70312;SDS011;57723;51.698;5.344;2023-12-04T00:54:46;8.20;;;3.63;;
70312;SDS011;57723;51.698;5.344;2023-12-04T00:57:11;10.70;;;4.00;;
70312;SDS011;57723;51.698;5.344;2023-12-04T00:59:36;10.97;;;3.87;;
70312;SDS011;57723;51.698;5.344;2023-12-04T01:02:11;7.30;;;3.77;;
70312;SDS011;57723;51.698;5.344;2023-12-04T01:04:36;7.55;;;3.42;;
70312;SDS011;57723;51.698;5.344;2023-12-04T01:07:04;8.73;;;3.75;;
70312;SDS011;57723;51.698;5.344;2023-12-04T01:09:36;7.15;;;3.50;;
70312;SDS011;57723;51.698;5.344;2023-12-04T01:12:01;10.50;;;4.05;;
70312;SDS011;57723;51.698;5.344;2023-12-04T01:14:26;7.85;;;3.35;;
70312;SDS011;57723;51.698;5.344;2023-12-04T01:16:52;8.23;;;3.50;;
70312;SDS011;57723;51.698;5.344;2023-12-04T01:19:17;7.43;;;3.87;;
70312;SDS011;57723;51.698;5.344;2023-12-04T01:21:43;9.43;;;3.80;;
70312;SDS011;57723;51.698;5.344;2023-12-04T01:24:08;8.00;;;3.50;;
70312;SDS011;57723;51.698;5.344;2023-12-04T01:26:37;10.00;;;4.00;;
70312;SDS011;57723;51.698;5.344;2023-12-04T01:29:03;9.05;;;3.63;;
70312;SDS011;57723;51.698;5.344;2023-12-04T01:31:31;8.30;;;3.47;;
70312;SDS011;57723;51.698;5.344;2023-12-04T01:33:56;8.93;;;3.47;;
70312;SDS011;57723;51.698;5.344;2023-12-04T01:36:25;8.33;;;3.57;;
70312;SDS011;57723;51.698;5.344;2023-12-04T01:38:50;7.25;;;3.47;;
70312;SDS011;57723;51.698;5.344;2023-12-04T01:41:16;6.97;;;3.30;;
70312;SDS011;57723;51.698;5.344;2023-12-04T01:43:41;6.93;;;3.43;;
70312;SDS011;57723;51.698;5.344;2023-12-04T01:46:06;9.07;;;3.90;;
70312;SDS011;57723;51.698;5.344;2023-12-04T01:48:32;7.67;;;3.67;;
70312;SDS011;57723;51.698;5.344;2023-12-04T01:51:00;8.60;;;3.75;;
70312;SDS011;57723;51.698;5.344;2023-12-04T01:53:28;7.80;;;3.70;;
70312;SDS011;57723;51.698;5.344;2023-12-04T01:55:53;8.20;;;3.97;;
70312;SDS011;57723;51.698;5.344;2023-12-04T01:58:18;7.15;;;3.22;;
70312;SDS011;57723;51.698;5.344;2023-12-04T02:00:44;6.70;;;3.13;;
70312;SDS011;57723;51.698;5.344;2023-12-04T02:03:12;6.43;;;3.25;;
70312;SDS011;57723;51.698;5.344;2023-12-04T02:05:38;7.40;;;3.23;;
70312;SDS011;57723;51.698;5.344;2023-12-04T02:08:06;6.03;;;3.05;;
70312;SDS011;57723;51.698;5.344;2023-12-04T02:10:31;6.77;;;3.23;;
70312;SDS011;57723;51.698;5.344;2023-12-04T02:12:57;8.75;;;3.55;;
70312;SDS011;57723;51.698;5.344;2023-12-04T02:15:23;7.93;;;3.00;;
70312;SDS011;57723;51.698;5.344;2023-12-04T02:17:52;6.90;;;3.53;;
70312;SDS011;57723;51.698;5.344;2023-12-04T02:20:17;8.13;;;3.30;;
70312;SDS011;57723;51.698;5.344;2023-12-04T02:22:43;10.77;;;3.30;;
70312;SDS011;57723;51.698;5.344;2023-12-04T02:25:09;7.93;;;3.60;;
70312;SDS011;57723;51.698;5.344;2023-12-04T02:27:41;7.65;;;3.50;;
70312;SDS011;57723;51.698;5.344;2023-12-04T02:30:09;7.82;;;3.10;;
70312;SDS011;57723;51.698;5.344;2023-12-04T02:32:37;8.63;;;4.35;;
70312;SDS011;57723;51.698;5.344;2023-12-04T02:35:11;6.35;;;2.90;;
70312;SDS011;57723;51.698;5.344;2023-12-04T02:37:37;6.60;;;3.10;;
70312;SDS011;57723;51.698;5.344;2023-12-04T02:40:03;7.55;;;3.40;;
70312;SDS011;57723;51.698;5.344;2023-12-04T02:42:29;5.82;;;3.13;;
70312;SDS011;57723;51.698;5.344;2023-12-04T02:44:54;7.10;;;3.33;;
70312;SDS011;57723;51.698;5.344;2023-12-04T02:47:19;5.93;;;3.17;;
70312;SDS011;57723;51.698;5.344;2023-12-04T02:49:45;8.03;;;3.30;;
70312;SDS011;57723;51.698;5.344;2023-12-04T02:52:10;5.67;;;3.10;;
70312;SDS011;57723;51.698;5.344;2023-12-04T02:54:36;9.53;;;2.90;;
70312;SDS011;57723;51.698;5.344;2023-12-04T02:57:01;6.45;;;3.28;;
70312;SDS011;57723;51.698;5.344;2023-12-04T02:59:26;5.90;;;3.20;;
70312;SDS011;57723;51.698;5.344;2023-12-04T03:01:52;7.63;;;3.03;;
70312;SDS011;57723;51.698;5.344;2023-12-04T03:04:19;7.95;;;3.22;;
70312;SDS011;57723;51.698;5.344;2023-12-04T03:06:44;10.18;;;3.38;;
70312;SDS011;57723;51.698;5.344;2023-12-04T03:09:10;6.60;;;3.20;;
70312;SDS011;57723;51.698;5.344;2023-12-04T03:11:39;5.88;;;3.17;;
70312;SDS011;57723;51.698;5.344;2023-12-04T03:14:04;6.85;;;3.30;;
70312;SDS011;57723;51.698;5.344;2023-12-04T03:16:29;6.63;;;3.07;;
70312;SDS011;57723;51.698;5.344;2023-12-04T03:18:55;8.45;;;3.35;;
70312;SDS011;57723;51.698;5.344;2023-12-04T03:21:21;8.17;;;2.87;;
70312;SDS011;57723;51.698;5.344;2023-12-04T03:23:46;6.53;;;3.17;;
70312;SDS011;57723;51.698;5.344;2023-12-04T03:26:15;5.20;;;2.83;;
70312;SDS011;57723;51.698;5.344;2023-12-04T03:28:41;8.55;;;3.22;;
70312;SDS011;57723;51.698;5.344;2023-12-04T03:31:06;6.10;;;2.70;;
70312;SDS011;57723;51.698;5.344;2023-12-04T03:33:36;6.38;;;2.90;;
70312;SDS011;57723;51.698;5.344;2023-12-04T03:36:01;7.32;;;2.72;;
70312;SDS011;57723;51.698;5.344;2023-12-04T03:38:26;8.53;;;3.33;;
70312;SDS011;57723;51.698;5.344;2023-12-04T03:40:52;7.47;;;2.90;;
70312;SDS011;57723;51.698;5.344;2023-12-04T03:43:17;6.63;;;3.00;;
70312;SDS011;57723;51.698;5.344;2023-12-04T03:45:43;5.95;;;3.20;;
70312;SDS011;57723;51.698;5.344;2023-12-04T03:48:08;5.85;;;2.80;;
70312;SDS011;57723;51.698;5.344;2023-12-04T03:50:34;5.77;;;2.93;;
70312;SDS011;57723;51.698;5.344;2023-12-04T03:52:59;7.30;;;2.90;;
70312;SDS011;57723;51.698;5.344;2023-12-04T03:55:27;9.70;;;2.80;;
70312;SDS011;57723;51.698;5.344;2023-12-04T03:57:52;6.57;;;3.10;;
70312;SDS011;57723;51.698;5.344;2023-12-04T04:00:18;7.10;;;2.92;;
70312;SDS011;57723;51.698;5.344;2023-12-04T04:02:44;6.03;;;2.70;;
70312;SDS011;57723;51.698;5.344;2023-12-04T04:05:09;9.43;;;2.70;;
70312;SDS011;57723;51.698;5.344;2023-12-04T04:07:35;6.37;;;2.90;;
70312;SDS011;57723;51.698;5.344;2023-12-04T04:10:00;6.20;;;3.10;;
70312;SDS011;57723;51.698;5.344;2023-12-04T04:12:29;4.47;;;2.57;;
70312;SDS011;57723;51.698;5.344;2023-12-04T04:14:54;5.90;;;2.88;;
70312;SDS011;57723;51.698;5.344;2023-12-04T04:17:19;6.80;;;2.40;;
70312;SDS011;57723;51.698;5.344;2023-12-04T04:19:45;5.63;;;2.63;;
70312;SDS011;57723;51.698;5.344;2023-12-04T04:22:10;5.82;;;2.78;;
70312;SDS011;57723;51.698;5.344;2023-12-04T04:24:36;6.70;;;2.90;;
70312;SDS011;57723;51.698;5.344;2023-12-04T04:27:01;6.40;;;2.50;;
70312;SDS011;57723;51.698;5.344;2023-12-04T04:29:27;4.75;;;2.47;;
70312;SDS011;57723;51.698;5.344;2023-12-04T04:31:52;5.40;;;2.45;;
70312;SDS011;57723;51.698;5.344;2023-12-04T04:34:19;8.17;;;2.60;;
70312;SDS011;57723;51.698;5.344;2023-12-04T04:36:44;5.45;;;2.83;;
70312;SDS011;57723;51.698;5.344;2023-12-04T04:39:11;6.57;;;2.50;;
70312;SDS011;57723;51.698;5.344;2023-12-04T04:41:37;6.88;;;2.90;;
70312;SDS011;57723;51.698;5.344;2023-12-04T04:44:02;7.20;;;2.63;;
70312;SDS011;57723;51.698;5.344;2023-12-04T04:46:27;5.97;;;2.30;;
70312;SDS011;57723;51.698;5.344;2023-12-04T04:48:53;5.90;;;2.67;;
70312;SDS011;57723;51.698;5.344;2023-12-04T04:51:19;5.00;;;2.58;;
70312;SDS011;57723;51.698;5.344;2023-12-04T04:53:44;6.67;;;2.87;;
70312;SDS011;57723;51.698;5.344;2023-12-04T04:56:09;5.17;;;2.53;;
70312;SDS011;57723;51.698;5.344;2023-12-04T04:58:35;5.28;;;2.63;;
70312;SDS011;57723;51.698;5.344;2023-12-04T05:01:01;4.90;;;2.47;;
70312;SDS011;57723;51.698;5.344;2023-12-04T05:03:26;4.82;;;2.28;;
70312;SDS011;57723;51.698;5.344;2023-12-04T05:05:52;4.50;;;2.10;;
70312;SDS011;57723;51.698;5.344;2023-12-04T05:08:17;4.33;;;2.27;;
70312;SDS011;57723;51.698;5.344;2023-12-04T05:10:45;7.32;;;2.72;;
70312;SDS011;57723;51.698;5.344;2023-12-04T05:13:13;6.70;;;2.47;;
70312;SDS011;57723;51.698;5.344;2023-12-04T05:15:39;4.50;;;2.07;;
70312;SDS011;57723;51.698;5.344;2023-12-04T05:18:07;3.92;;;2.15;;
70312;SDS011;57723;51.698;5.344;2023-12-04T05:20:32;4.60;;;2.13;;
70312;SDS011;57723;51.698;5.344;2023-12-04T05:23:07;6.50;;;2.20;;
70312;SDS011;57723;51.698;5.344;2023-12-04T05:25:32;5.45;;;2.38;;
70312;SDS011;57723;51.698;5.344;2023-12-04T05:27:58;4.30;;;2.20;;
70312;SDS011;57723;51.698;5.344;2023-12-04T05:30:23;4.43;;;2.00;;
70312;SDS011;57723;51.698;5.344;2023-12-04T05:32:48;5.57;;;2.20;;
70312;SDS011;57723;51.698;5.344;2023-12-04T05:35:15;5.28;;;2.10;;
70312;SDS011;57723;51.698;5.344;2023-12-04T05:37:41;5.43;;;1.85;;
70312;SDS011;57723;51.698;5.344;2023-12-04T05:40:06;7.47;;;2.13;;
70312;SDS011;57723;51.698;5.344;2023-12-04T05:42:37;4.30;;;1.97;;
70312;SDS011;57723;51.698;5.344;2023-12-04T05:45:03;4.20;;;2.03;;
70312;SDS011;57723;51.698;5.344;2023-12-04T05:47:28;3.30;;;1.90;;
70312;SDS011;57723;51.698;5.344;2023-12-04T05:49:56;4.30;;;1.70;;
70312;SDS011;57723;51.698;5.344;2023-12-04T05:52:21;4.15;;;2.22;;
70312;SDS011;57723;51.698;5.344;2023-12-04T05:54:47;5.87;;;2.00;;
70312;SDS011;57723;51.698;5.344;2023-12-04T05:57:13;4.82;;;2.00;;
70312;SDS011;57723;51.698;5.344;2023-12-04T05:59:41;4.90;;;2.37;;
70312;SDS011;57723;51.698;5.344;2023-12-04T06:02:06;3.65;;;1.65;;
70312;SDS011;57723;51.698;5.344;2023-12-04T06:04:32;5.63;;;2.00;;
70312;SDS011;57723;51.698;5.344;2023-12-04T06:06:58;5.85;;;2.08;;
70312;SDS011;57723;51.698;5.344;2023-12-04T06:09:23;5.47;;;2.30;;
70312;SDS011;57723;51.698;5.344;2023-12-04T06:11:49;3.40;;;1.90;;
70312;SDS011;57723;51.698;5.344;2023-12-04T06:14:14;6.43;;;2.90;;
70312;SDS011;57723;51.698;5.344;2023-12-04T06:16:40;4.10;;;3.40;;
70312;SDS011;57723;51.698;5.344;2023-12-04T06:19:05;5.50;;;3.87;;
70312;SDS011;57723;51.698;5.344;2023-12-04T06:21:31;5.38;;;4.75;;
70312;SDS011;57723;51.698;5.344;2023-12-04T06:23:56;6.53;;;4.80;;
70312;SDS011;57723;51.698;5.344;2023-12-04T06:26:22;9.20;;;5.00;;
70312;SDS011;57723;51.698;5.344;2023-12-04T06:28:48;6.95;;;4.70;;
70312;SDS011;57723;51.698;5.344;2023-12-04T06:31:13;12.17;;;4.93;;
70312;SDS011;57723;51.698;5.344;2023-12-04T06:33:38;12.53;;;4.90;;
70312;SDS011;57723;51.698;5.344;2023-12-04T06:36:04;5.47;;;2.07;;
70312;SDS011;57723;51.698;5.344;2023-12-04T06:38:33;5.70;;;1.75;;
70312;SDS011;57723;51.698;5.344;2023-12-04T06:41:02;6.25;;;2.10;;
70312;SDS011;57723;51.698;5.344;2023-12-04T06:43:28;4.32;;;1.92;;
70312;SDS011;57723;51.698;5.344;2023-12-04T06:45:54;7.57;;;4.73;;
70312;SDS011;57723;51.698;5.344;2023-12-04T06:48:22;5.60;;;4.60;;
70312;SDS011;57723;51.698;5.344;2023-12-04T06:50:49;6.72;;;4.85;;
70312;SDS011;57723;51.698;5.344;2023-12-04T06:53:18;7.30;;;4.72;;
70312;SDS011;57723;51.698;5.344;2023-12-04T06:55:43;8.10;;;5.40;;
70312;SDS011;57723;51.698;5.344;2023-12-04T06:58:09;5.10;;;4.60;;
70312;SDS011;57723;51.698;5.344;2023-12-04T07:00:37;5.63;;;5.00;;
70312;SDS011;57723;51.698;5.344;2023-12-04T07:03:03;5.88;;;5.03;;
70312;SDS011;57723;51.698;5.344;2023-12-04T07:05:28;7.53;;;5.38;;
70312;SDS011;57723;51.698;5.344;2023-12-04T07:07:54;6.33;;;4.57;;
70312;SDS011;57723;51.698;5.344;2023-12-04T07:10:19;6.50;;;4.83;;
70312;SDS011;57723;51.698;5.344;2023-12-04T07:12:45;5.80;;;4.93;;
70312;SDS011;57723;51.698;5.344;2023-12-04T07:15:11;6.60;;;5.35;;
70312;SDS011;57723;51.698;5.344;2023-12-04T07:17:36;7.67;;;4.63;;
70312;SDS011;57723;51.698;5.344;2023-12-04T07:20:03;6.32;;;5.15;;
70312;SDS011;57723;51.698;5.344;2023-12-04T07:22:31;8.32;;;5.30;;
70312;SDS011;57723;51.698;5.344;2023-12-04T07:24:57;8.17;;;5.07;;
70312;SDS011;57723;51.698;5.344;2023-12-04T07:27:23;6.05;;;5.07;;
70312;SDS011;57723;51.698;5.344;2023-12-04T07:29:48;6.47;;;4.87;;
70312;SDS011;57723;51.698;5.344;2023-12-04T07:32:14;5.47;;;4.72;;
70312;SDS011;57723;51.698;5.344;2023-12-04T07:34:43;7.65;;;4.85;;
70312;SDS011;57723;51.698;5.344;2023-12-04T07:37:08;7.83;;;5.57;;
70312;SDS011;57723;51.698;5.344;2023-12-04T07:39:33;6.67;;;5.50;;
70312;SDS011;57723;51.698;5.344;2023-12-04T07:42:02;8.38;;;4.85;;
70312;SDS011;57723;51.698;5.344;2023-12-04T07:44:31;6.18;;;5.10;;
70312;SDS011;57723;51.698;5.344;2023-12-04T07:46:56;7.85;;;5.35;;
70312;SDS011;57723;51.698;5.344;2023-12-04T07:49:26;7.25;;;5.47;;
70312;SDS011;57723;51.698;5.344;2023-12-04T07:51:52;7.05;;;5.43;;
70312;SDS011;57723;51.698;5.344;2023-12-04T07:54:19;8.13;;;4.50;;
70312;SDS011;57723;51.698;5.344;2023-12-04T07:56:44;6.07;;;5.10;;
70312;SDS011;57723;51.698;5.344;2023-12-04T07:59:13;6.63;;;4.97;;
70312;SDS011;57723;51.698;5.344;2023-12-04T08:01:39;7.85;;;5.40;;
70312;SDS011;57723;51.698;5.344;2023-12-04T08:04:04;6.77;;;4.90;;
70312;SDS011;57723;51.698;5.344;2023-12-04T08:06:31;5.63;;;4.95;;
70312;SDS011;57723;51.698;5.344;2023-12-04T08:08:56;8.37;;;4.80;;
70312;SDS011;57723;51.698;5.344;2023-12-04T08:11:22;7.15;;;5.32;;
70312;SDS011;57723;51.698;5.344;2023-12-04T08:13:48;6.20;;;4.50;;
70312;SDS011;57723;51.698;5.344;2023-12-04T08:16:14;8.53;;;5.10;;
70312;SDS011;57723;51.698;5.344;2023-12-04T08:18:45;5.63;;;5.00;;
70312;SDS011;57723;51.698;5.344;2023-12-04T08:21:10;5.75;;;4.50;;
70312;SDS011;57723;51.698;5.344;2023-12-04T08:23:36;6.38;;;5.22;;
70312;SDS011;57723;51.698;5.344;2023-12-04T08:26:02;8.30;;;5.47;;
70312;SDS011;57723;51.698;5.344;2023-12-04T08:28:28;7.38;;;5.30;;
70312;SDS011;57723;51.698;5.344;2023-12-04T08:30:53;6.67;;;4.60;;
70312;SDS011;57723;51.698;5.344;2023-12-04T08:33:22;6.80;;;4.88;;
70312;SDS011;57723;51.698;5.344;2023-12-04T08:35:48;5.87;;;5.00;;
70312;SDS011;57723;51.698;5.344;2023-12-04T08:38:13;6.40;;;5.37;;
70312;SDS011;57723;51.698;5.344;2023-12-04T08:40:39;4.22;;;2.20;;
70312;SDS011;57723;51.698;5.344;2023-12-04T08:43:05;5.30;;;1.77;;
70312;SDS011;57723;51.698;5.344;2023-12-04T08:45:30;7.73;;;2.20;;
70312;SDS011;57723;51.698;5.344;2023-12-04T08:47:58;4.38;;;2.00;;
70312;SDS011;57723;51.698;5.344;2023-12-04T08:50:25;7.57;;;2.00;;
70312;SDS011;57723;51.698;5.344;2023-12-04T08:52:51;3.70;;;1.98;;
70312;SDS011;57723;51.698;5.344;2023-12-04T08:55:17;5.03;;;1.77;;
70312;SDS011;57723;51.698;5.344;2023-12-04T08:57:42;3.57;;;1.77;;
70312;SDS011;57723;51.698;5.344;2023-12-04T09:00:08;8.73;;;2.23;;
70312;SDS011;57723;51.698;5.344;2023-12-04T09:02:35;3.13;;;1.67;;
70312;SDS011;57723;51.698;5.344;2023-12-04T09:05:06;4.20;;;2.00;;
70312;SDS011;57723;51.698;5.344;2023-12-04T09:07:35;4.78;;;1.88;;
70312;SDS011;57723;51.698;5.344;2023-12-04T09:10:02;3.47;;;1.67;;
70312;SDS011;57723;51.698;5.344;2023-12-04T09:12:27;3.97;;;1.73;;
70312;SDS011;57723;51.698;5.344;2023-12-04T09:14:53;4.35;;;1.77;;
70312;SDS011;57723;51.698;5.344;2023-12-04T09:17:18;4.60;;;1.83;;
70312;SDS011;57723;51.698;5.344;2023-12-04T09:19:45;3.45;;;1.70;;
70312;SDS011;57723;51.698;5.344;2023-12-04T09:22:13;4.25;;;1.90;;
70312;SDS011;57723;51.698;5.344;2023-12-04T09:24:38;4.17;;;1.90;;
70312;SDS011;57723;51.698;5.344;2023-12-04T09:27:04;4.17;;;1.80;;
70312;SDS011;57723;51.698;5.344;2023-12-04T09:29:36;4.25;;;1.88;;
70312;SDS011;57723;51.698;5.344;2023-12-04T09:32:05;4.22;;;2.00;;
70312;SDS011;57723;51.698;5.344;2023-12-04T09:34:31;3.50;;;1.70;;
70312;SDS011;57723;51.698;5.344;2023-12-04T09:36:57;3.88;;;1.77;;
70312;SDS011;57723;51.698;5.344;2023-12-04T09:39:23;3.20;;;1.60;;
70312;SDS011;57723;51.698;5.344;2023-12-04T09:41:49;6.35;;;1.50;;
70312;SDS011;57723;51.698;5.344;2023-12-04T09:44:14;4.33;;;1.60;;
70312;SDS011;57723;51.698;5.344;2023-12-04T09:46:43;4.70;;;1.77;;
70312;SDS011;57723;51.698;5.344;2023-12-04T09:49:08;3.53;;;1.50;;
70312;SDS011;57723;51.698;5.344;2023-12-04T09:51:35;4.53;;;1.92;;
70312;SDS011;57723;51.698;5.344;2023-12-04T09:54:02;3.83;;;1.80;;
70312;SDS011;57723;51.698;5.344;2023-12-04T09:56:32;3.47;;;1.70;;
70312;SDS011;57723;51.698;5.344;2023-12-04T09:58:59;4.47;;;1.80;;
70312;SDS011;57723;51.698;5.344;2023-12-04T10:01:26;4.25;;;1.75;;
70312;SDS011;57723;51.698;5.344;2023-12-04T10:03:53;4.63;;;1.85;;
70312;SDS011;57723;51.698;5.344;2023-12-04T10:06:18;3.27;;;1.70;;
70312;SDS011;57723;51.698;5.344;2023-12-04T10:08:44;3.47;;;1.70;;
70312;SDS011;57723;51.698;5.344;2023-12-04T10:11:10;4.03;;;1.88;;
70312;SDS011;57723;51.698;5.344;2023-12-04T10:13:35;4.25;;;1.60;;
70312;SDS011;57723;51.698;5.344;2023-12-04T10:16:01;5.18;;;1.80;;
70312;SDS011;57723;51.698;5.344;2023-12-04T10:18:28;4.00;;;1.60;;
70312;SDS011;57723;51.698;5.344;2023-12-04T10:20:57;3.22;;;1.48;;
70312;SDS011;57723;51.698;5.344;2023-12-04T10:23:44;3.90;;;1.55;;
70312;SDS011;57723;51.698;5.344;2023-12-04T10:26:14;2.75;;;1.60;;
70312;SDS011;57723;51.698;5.344;2023-12-04T10:29:01;3.67;;;1.60;;
70312;SDS011;57723;51.698;5.344;2023-12-04T10:31:31;2.95;;;1.40;;
70312;SDS011;57723;51.698;5.344;2023-12-04T10:33:57;4.40;;;1.80;;
70312;SDS011;57723;51.698;5.344;2023-12-04T10:36:22;2.95;;;1.58;;
70312;SDS011;57723;51.698;5.344;2023-12-04T10:38:57;3.50;;;1.43;;
70312;SDS011;57723;51.698;5.344;2023-12-04T10:41:23;3.33;;;1.80;;
70312;SDS011;57723;51.698;5.344;2023-12-04T10:43:48;2.50;;;1.50;;
70312;SDS011;57723;51.698;5.344;2023-12-04T10:46:14;3.45;;;1.42;;
70312;SDS011;57723;51.698;5.344;2023-12-04T10:48:42;2.85;;;1.55;;
70312;SDS011;57723;51.698;5.344;2023-12-04T10:51:13;4.03;;;1.60;;
70312;SDS011;57723;51.698;5.344;2023-12-04T10:53:43;3.95;;;1.75;;
70312;SDS011;57723;51.698;5.344;2023-12-04T10:56:15;3.75;;;1.50;;
70312;SDS011;57723;51.698;5.344;2023-12-04T10:58:43;3.67;;;1.63;;
70312;SDS011;57723;51.698;5.344;2023-12-04T11:01:12;3.55;;;1.90;;
70312;SDS011;57723;51.698;5.344;2023-12-04T11:03:44;2.47;;;1.40;;
70312;SDS011;57723;51.698;5.344;2023-12-04T11:06:12;3.95;;;1.70;;
70312;SDS011;57723;51.698;5.344;2023-12-04T11:08:39;2.83;;;1.50;;
70312;SDS011;57723;51.698;5.344;2023-12-04T11:11:12;3.58;;;1.77;;
70312;SDS011;57723;51.698;5.344;2023-12-04T11:13:45;3.40;;;1.75;;
70312;SDS011;57723;51.698;5.344;2023-12-04T11:18:37;3.40;;;1.55;;
70312;SDS011;57723;51.698;5.344;2023-12-04T11:21:07;3.00;;;1.47;;
70312;SDS011;57723;51.698;5.344;2023-12-04T11:23:33;3.00;;;1.50;;
70312;SDS011;57723;51.698;5.344;2023-12-04T11:25:59;3.55;;;1.55;;
70312;SDS011;57723;51.698;5.344;2023-12-04T11:28:26;2.58;;;1.42;;
70312;SDS011;57723;51.698;5.344;2023-12-04T11:30:52;3.30;;;1.60;;
70312;SDS011;57723;51.698;5.344;2023-12-04T11:33:19;2.20;;;1.40;;
70312;SDS011;57723;51.698;5.344;2023-12-04T11:35:46;2.83;;;1.55;;
70312;SDS011;57723;51.698;5.344;2023-12-04T11:38:14;3.50;;;1.67;;
70312;SDS011;57723;51.698;5.344;2023-12-04T11:40:41;2.42;;;1.33;;
70312;SDS011;57723;51.698;5.344;2023-12-04T11:43:25;3.53;;;1.35;;
70312;SDS011;57723;51.698;5.344;2023-12-04T11:45:52;3.20;;;1.55;;
70312;SDS011;57723;51.698;5.344;2023-12-04T11:48:22;3.13;;;1.45;;
70312;SDS011;57723;51.698;5.344;2023-12-04T11:50:47;3.47;;;1.50;;
70312;SDS011;57723;51.698;5.344;2023-12-04T11:53:16;3.22;;;1.70;;
70312;SDS011;57723;51.698;5.344;2023-12-04T11:55:45;3.17;;;1.50;;
70312;SDS011;57723;51.698;5.344;2023-12-04T11:58:11;3.50;;;1.60;;
70312;SDS011;57723;51.698;5.344;2023-12-04T12:00:37;2.90;;;1.55;;
70312;SDS011;57723;51.698;5.344;2023-12-04T12:03:05;3.20;;;1.40;;
70312;SDS011;57723;51.698;5.344;2023-12-04T12:05:34;3.38;;;1.52;;
70312;SDS011;57723;51.698;5.344;2023-12-04T12:08:00;3.33;;;1.63;;
70312;SDS011;57723;51.698;5.344;2023-12-04T12:10:27;3.75;;;1.50;;
70312;SDS011;57723;51.698;5.344;2023-12-04T12:12:52;2.90;;;1.55;;
70312;SDS011;57723;51.698;5.344;2023-12-04T12:15:18;3.33;;;1.60;;
70312;SDS011;57723;51.698;5.344;2023-12-04T12:17:44;3.15;;;1.55;;
70312;SDS011;57723;51.698;5.344;2023-12-04T12:20:09;2.77;;;1.67;;
70312;SDS011;57723;51.698;5.344;2023-12-04T12:22:36;2.60;;;1.50;;
70312;SDS011;57723;51.698;5.344;2023-12-04T12:25:06;2.53;;;1.27;;
70312;SDS011;57723;51.698;5.344;2023-12-04T12:27:34;2.38;;;1.35;;
70312;SDS011;57723;51.698;5.344;2023-12-04T12:30:00;3.22;;;1.77;;
70312;SDS011;57723;51.698;5.344;2023-12-04T12:32:28;2.85;;;1.48;;
70312;SDS011;57723;51.698;5.344;2023-12-04T12:34:54;2.67;;;1.60;;
70312;SDS011;57723;51.698;5.344;2023-12-04T12:37:20;4.25;;;1.70;;
70312;SDS011;57723;51.698;5.344;2023-12-04T12:39:48;2.60;;;1.40;;
70312;SDS011;57723;51.698;5.344;2023-12-04T12:42:29;2.70;;;1.60;;
70312;SDS011;57723;51.698;5.344;2023-12-04T12:44:55;3.08;;;1.60;;
70312;SDS011;57723;51.698;5.344;2023-12-04T12:47:21;3.42;;;1.50;;
70312;SDS011;57723;51.698;5.344;2023-12-04T12:49:46;3.07;;;1.40;;
70312;SDS011;57723;51.698;5.344;2023-12-04T12:52:13;4.85;;;1.77;;
70312;SDS011;57723;51.698;5.344;2023-12-04T12:54:40;10.15;;;3.30;;
70312;SDS011;57723;51.698;5.344;2023-12-04T12:57:06;6.82;;;1.75;;
70312;SDS011;57723;51.698;5.344;2023-12-04T12:59:32;5.28;;;1.60;;
70312;SDS011;57723;51.698;5.344;2023-12-04T13:01:58;8.70;;;1.88;;
70312;SDS011;57723;51.698;5.344;2023-12-04T13:04:25;5.13;;;1.67;;
70312;SDS011;57723;51.698;5.344;2023-12-04T13:06:52;4.15;;;1.60;;
70312;SDS011;57723;51.698;5.344;2023-12-04T13:09:19;6.93;;;2.10;;
70312;SDS011;57723;51.698;5.344;2023-12-04T13:11:47;3.95;;;1.70;;
70312;SDS011;57723;51.698;5.344;2023-12-04T13:14:14;4.10;;;1.50;;
70312;SDS011;57723;51.698;5.344;2023-12-04T13:16:39;5.10;;;1.70;;
70312;SDS011;57723;51.698;5.344;2023-12-04T13:19:07;3.05;;;1.40;;
70312;SDS011;57723;51.698;5.344;2023-12-04T13:21:36;3.95;;;1.70;;
70312;SDS011;57723;51.698;5.344;2023-12-04T13:24:12;3.92;;;1.70;;
70312;SDS011;57723;51.698;5.344;2023-12-04T13:26:37;2.90;;;1.42;;
70312;SDS011;57723;51.698;5.344;2023-12-04T13:29:04;3.77;;;1.40;;
70312;SDS011;57723;51.698;5.344;2023-12-04T13:31:31;5.40;;;1.30;;
70312;SDS011;57723;51.698;5.344;2023-12-04T13:33:57;5.05;;;1.70;;
70312;SDS011;57723;51.698;5.344;2023-12-04T13:36:23;2.67;;;1.43;;
70312;SDS011;57723;51.698;5.344;2023-12-04T13:38:49;3.08;;;1.20;;
70312;SDS011;57723;51.698;5.344;2023-12-04T13:41:15;5.35;;;1.50;;
70312;SDS011;57723;51.698;5.344;2023-12-04T13:43:59;3.67;;;1.40;;
70312;SDS011;57723;51.698;5.344;2023-12-04T13:46:31;3.22;;;1.60;;
70312;SDS011;57723;51.698;5.344;2023-12-04T13:48:57;3.15;;;1.60;;
70312;SDS011;57723;51.698;5.344;2023-12-04T13:51:24;5.00;;;1.40;;
70312;SDS011;57723;51.698;5.344;2023-12-04T13:53:50;4.85;;;1.55;;
70312;SDS011;57723;51.698;5.344;2023-12-04T13:56:23;2.65;;;1.40;;
70312;SDS011;57723;51.698;5.344;2023-12-04T13:58:49;2.92;;;1.30;;
70312;SDS011;57723;51.698;5.344;2023-12-04T14:01:23;3.30;;;1.33;;
70312;SDS011;57723;51.698;5.344;2023-12-04T14:03:54;4.35;;;1.50;;
70312;SDS011;57723;51.698;5.344;2023-12-04T14:06:21;3.60;;;1.23;;
70312;SDS011;57723;51.698;5.344;2023-12-04T14:08:49;3.80;;;1.63;;
70312;SDS011;57723;51.698;5.344;2023-12-04T14:11:15;4.22;;;1.30;;
70312;SDS011;57723;51.698;5.344;2023-12-04T14:13:40;4.18;;;1.40;;
70312;SDS011;57723;51.698;5.344;2023-12-04T14:16:08;2.72;;;1.50;;
70312;SDS011;57723;51.698;5.344;2023-12-04T14:18:34;2.60;;;1.40;;
70312;SDS011;57723;51.698;5.344;2023-12-04T14:20:59;4.07;;;1.30;;
70312;SDS011;57723;51.698;5.344;2023-12-04T14:23:25;4.30;;;1.50;;
70312;SDS011;57723;51.698;5.344;2023-12-04T14:25:50;3.20;;;1.30;;
70312;SDS011;57723;51.698;5.344;2023-12-04T14:28:20;2.60;;;1.25;;
70312;SDS011;57723;51.698;5.344;2023-12-04T14:30:47;2.45;;;1.40;;
70312;SDS011;57723;51.698;5.344;2023-12-04T14:33:12;3.77;;;1.50;;
70312;SDS011;57723;51.698;5.344;2023-12-04T14:35:38;3.38;;;1.40;;
70312;SDS011;57723;51.698;5.344;2023-12-04T14:38:04;4.05;;;1.38;;
70312;SDS011;57723;51.698;5.344;2023-12-04T14:40:30;3.53;;;1.77;;
70312;SDS011;57723;51.698;5.344;2023-12-04T14:42:55;2.50;;;1.20;;
70312;SDS011;57723;51.698;5.344;2023-12-04T14:45:21;2.70;;;1.20;;
70312;SDS011;57723;51.698;5.344;2023-12-04T14:47:48;3.90;;;1.30;;